Terminal Aerodrome Forecast
Issued by NWS

Home | Current Version | Previous Version | Text Only | Print | Product List | Glossary On
Versions: 1 2 3 4 5 6 7 8 9 10 11 12 13 14 15 16 17 18
000
FTUS43 KAPX 231130 CCA
TAFPLN
TAF COR
KPLN 231130Z 2312/2412 31009KT P6SM SCT020 BKN035
     FM231400 31012G20KT P6SM SCT020 BKN035
     FM232100 31011G19KT P6SM FEW030 SCT045
     FM240200 33007KT P6SM SCT060
     FM240800 34005KT P6SM BKN060
     FM241100 35004KT P6SM BKN050=

USA.gov is the U.S. government's official web portal to all federal, state and local government web resources and services.